createdAt,value
2018-02-10T00:00:37.159Z,0.00
2018-02-10T00:01:37.135Z,0.00
2018-02-10T00:02:37.107Z,0.00
2018-02-10T00:03:37.080Z,0.00
2018-02-10T00:04:37.051Z,0.00
2018-02-10T00:05:37.024Z,0.00
2018-02-10T00:06:36.991Z,0.00
2018-02-10T00:07:36.968Z,0.00
2018-02-10T00:08:36.940Z,0.00
2018-02-10T00:09:36.907Z,0.00
2018-02-10T00:10:36.883Z,0.00
2018-02-10T00:11:36.856Z,0.00
2018-02-10T00:12:36.824Z,0.00
2018-02-10T00:13:36.794Z,0.00
2018-02-10T00:14:36.770Z,0.00
2018-02-10T00:15:36.742Z,0.00
2018-02-10T00:16:36.712Z,0.00
2018-02-10T00:17:36.684Z,0.00
2018-02-10T00:18:36.655Z,0.00
2018-02-10T00:19:36.629Z,0.00
2018-02-10T00:20:36.603Z,0.00
2018-02-10T00:21:36.570Z,0.00
2018-02-10T00:22:36.545Z,0.00
2018-02-10T00:23:36.515Z,0.00
2018-02-10T00:24:36.491Z,0.00
2018-02-10T00:25:36.464Z,0.00
2018-02-10T00:26:36.432Z,0.00
2018-02-10T00:27:36.405Z,0.00
2018-02-10T00:28:36.380Z,0.00
2018-02-10T00:29:36.350Z,0.00
2018-02-10T00:30:36.316Z,0.00
2018-02-10T00:31:36.296Z,0.00
2018-02-10T00:32:36.266Z,0.00
2018-02-10T00:33:36.236Z,0.00
2018-02-10T00:34:36.209Z,0.00
2018-02-10T00:35:36.184Z,0.00
2018-02-10T00:36:36.156Z,0.00
2018-02-10T00:37:36.124Z,0.00
2018-02-10T00:38:36.099Z,0.00
2018-02-10T00:39:36.064Z,0.00
2018-02-10T00:40:36.043Z,0.00
2018-02-10T00:41:36.010Z,0.00
2018-02-10T00:42:35.993Z,0.00
2018-02-10T00:43:35.955Z,0.00
2018-02-10T00:44:35.932Z,0.00
2018-02-10T00:45:35.899Z,0.00
2018-02-10T00:46:35.874Z,0.00
2018-02-10T00:47:35.845Z,0.00
2018-02-10T00:48:35.827Z,0.00
2018-02-10T00:49:35.786Z,0.00
2018-02-10T00:50:35.762Z,0.00
2018-02-10T00:51:35.732Z,0.00
2018-02-10T00:52:35.702Z,0.00
2018-02-10T00:53:35.677Z,0.00
2018-02-10T00:54:35.650Z,0.00
2018-02-10T00:55:35.623Z,0.00
2018-02-10T00:56:35.597Z,0.00
2018-02-10T00:57:35.570Z,0.00
2018-02-10T00:58:35.536Z,0.00
2018-02-10T00:59:35.514Z,0.00
2018-02-10T01:00:35.480Z,0.00
2018-02-10T01:01:35.455Z,0.00
2018-02-10T01:02:35.424Z,0.00
2018-02-10T01:03:35.395Z,0.00
2018-02-10T01:04:35.372Z,0.00
2018-02-10T01:05:35.344Z,0.00
2018-02-10T01:06:35.342Z,0.00
2018-02-10T01:07:35.287Z,0.00
2018-02-10T01:08:35.260Z,0.00
2018-02-10T01:09:35.231Z,0.00
2018-02-10T01:10:35.199Z,0.00
2018-02-10T01:11:35.175Z,0.00
2018-02-10T01:12:35.144Z,0.00
2018-02-10T01:13:35.114Z,0.00
2018-02-10T01:14:35.093Z,0.00
2018-02-10T01:15:35.063Z,0.00
2018-02-10T01:16:35.027Z,0.00
2018-02-10T01:17:35.004Z,0.00
2018-02-10T01:18:34.979Z,0.00
2018-02-10T01:19:34.952Z,0.00
2018-02-10T01:20:35.004Z,0.00
2018-02-10T01:21:34.895Z,0.00
2018-02-10T01:22:34.868Z,0.00
2018-02-10T01:23:34.835Z,0.00
2018-02-10T01:24:34.830Z,0.00
2018-02-10T01:25:34.822Z,0.00
2018-02-10T01:26:34.755Z,0.00
2018-02-10T01:27:34.724Z,0.00
2018-02-10T01:28:34.700Z,0.00
2018-02-10T01:29:34.671Z,0.00
2018-02-10T01:30:34.640Z,0.00
2018-02-10T01:31:34.612Z,0.00
2018-02-10T01:32:34.589Z,0.00
2018-02-10T01:33:34.559Z,0.00
2018-02-10T01:34:34.528Z,0.00
2018-02-10T01:35:34.505Z,0.00
2018-02-10T01:36:34.474Z,0.00
2018-02-10T01:37:34.443Z,0.00
2018-02-10T01:38:34.418Z,0.00
2018-02-10T01:39:34.387Z,0.00
2018-02-10T01:40:34.362Z,0.00
2018-02-10T01:41:34.333Z,0.00
2018-02-10T01:42:34.303Z,0.00
2018-02-10T01:43:34.278Z,0.00
2018-02-10T01:44:34.251Z,0.00
2018-02-10T01:45:34.220Z,0.00
2018-02-10T01:46:34.194Z,0.00
2018-02-10T01:47:34.164Z,0.00
2018-02-10T01:48:34.140Z,0.00
2018-02-10T01:49:34.106Z,0.00
2018-02-10T01:50:34.086Z,0.00
2018-02-10T01:51:34.050Z,0.00
2018-02-10T01:52:34.026Z,0.00
2018-02-10T01:53:34.000Z,0.00
2018-02-10T01:54:33.966Z,0.00
2018-02-10T01:55:33.942Z,0.00
2018-02-10T01:56:33.913Z,0.00
2018-02-10T01:57:33.885Z,0.00
2018-02-10T01:58:33.856Z,0.00
2018-02-10T01:59:33.830Z,0.00
2018-02-10T02:00:33.796Z,0.00
2018-02-10T02:01:33.772Z,0.00
2018-02-10T02:02:33.739Z,0.00
2018-02-10T02:03:33.715Z,0.00
2018-02-10T02:04:33.684Z,0.00
2018-02-10T02:05:33.660Z,0.00
2018-02-10T02:06:33.628Z,0.00
2018-02-10T02:07:33.604Z,0.00
2018-02-10T02:08:33.572Z,0.00
2018-02-10T02:09:33.546Z,0.00
2018-02-10T02:10:33.514Z,0.00
2018-02-10T02:11:33.488Z,0.00
2018-02-10T02:12:33.460Z,0.00
2018-02-10T02:13:33.433Z,0.00
2018-02-10T02:14:33.398Z,0.00
2018-02-10T02:15:33.377Z,0.00
2018-02-10T02:16:33.347Z,0.00
2018-02-10T02:17:33.324Z,0.00
2018-02-10T02:18:33.288Z,0.00
2018-02-10T02:19:33.267Z,0.00
2018-02-10T02:20:33.233Z,0.00
2018-02-10T02:21:33.208Z,0.00
2018-02-10T02:22:33.182Z,0.00
2018-02-10T02:23:33.147Z,0.00
2018-02-10T02:24:33.125Z,0.00
2018-02-10T02:25:33.092Z,0.00
2018-02-10T02:26:33.066Z,0.00
2018-02-10T02:27:33.036Z,0.00
2018-02-10T02:28:33.017Z,0.00
2018-02-10T02:29:32.979Z,0.00
2018-02-10T02:30:32.955Z,0.00
2018-02-10T02:31:32.923Z,0.00
2018-02-10T02:32:32.900Z,0.00
2018-02-10T02:33:32.866Z,0.00
2018-02-10T02:34:32.839Z,0.00
2018-02-10T02:35:32.819Z,0.00
2018-02-10T02:36:32.788Z,0.00
2018-02-10T02:37:32.756Z,0.00
2018-02-10T02:38:32.730Z,0.00
2018-02-10T02:39:32.701Z,0.00
2018-02-10T02:40:32.670Z,0.00
2018-02-10T02:41:32.643Z,0.00
2018-02-10T02:42:32.616Z,0.00
2018-02-10T02:43:32.586Z,0.00
2018-02-10T02:44:32.557Z,0.00
2018-02-10T02:45:32.529Z,0.00
2018-02-10T02:46:32.503Z,0.00
2018-02-10T02:47:32.475Z,0.00
2018-02-10T02:48:32.450Z,0.00
2018-02-10T02:49:32.417Z,0.00
2018-02-10T02:50:32.406Z,0.00
2018-02-10T02:51:32.366Z,0.00
2018-02-10T02:52:32.334Z,0.00
2018-02-10T02:53:32.300Z,0.00
2018-02-10T02:54:32.279Z,0.00
2018-02-10T02:55:32.248Z,0.00
2018-02-10T02:56:32.223Z,0.00
2018-02-10T02:57:32.194Z,0.00
2018-02-10T02:58:32.161Z,0.00
2018-02-10T02:59:32.143Z,0.00
2018-02-10T03:00:32.110Z,0.00
2018-02-10T03:01:32.082Z,0.00
2018-02-10T03:02:32.048Z,0.00
2018-02-10T03:03:32.022Z,0.00
2018-02-10T03:04:31.997Z,0.00
2018-02-10T03:05:31.966Z,0.00
2018-02-10T03:06:31.937Z,0.00
2018-02-10T03:07:31.909Z,0.00
2018-02-10T03:08:31.883Z,0.00
2018-02-10T03:09:31.855Z,0.00
2018-02-10T03:10:31.823Z,0.00
2018-02-10T03:11:31.796Z,0.00
2018-02-10T03:12:31.786Z,0.00
2018-02-10T03:13:31.739Z,0.00
2018-02-10T03:14:31.713Z,0.00
2018-02-10T03:15:31.690Z,0.00
2018-02-10T03:16:31.654Z,0.00
2018-02-10T03:17:31.628Z,0.00
2018-02-10T03:18:31.602Z,0.00
2018-02-10T03:19:31.573Z,0.00
2018-02-10T03:20:31.589Z,0.00
2018-02-10T03:21:31.519Z,0.00
2018-02-10T03:22:31.490Z,0.00
2018-02-10T03:23:31.461Z,0.00
2018-02-10T03:24:31.428Z,0.00
2018-02-10T03:25:31.403Z,0.00
2018-02-10T03:26:31.372Z,0.00
2018-02-10T03:27:31.345Z,0.00
2018-02-10T03:28:31.318Z,0.00
2018-02-10T03:29:31.291Z,0.00
2018-02-10T03:30:31.262Z,0.00
2018-02-10T03:31:31.232Z,0.00
2018-02-10T03:32:31.206Z,0.00
2018-02-10T03:33:31.175Z,0.00
2018-02-10T03:34:31.147Z,0.00
2018-02-10T03:35:31.123Z,0.00
2018-02-10T03:36:31.091Z,0.00
2018-02-10T03:37:31.066Z,0.00
2018-02-10T03:38:31.032Z,0.00
2018-02-10T03:39:31.009Z,0.00
2018-02-10T03:40:30.977Z,0.00
2018-02-10T03:41:30.957Z,0.00
2018-02-10T03:42:30.921Z,0.00
2018-02-10T03:43:30.896Z,0.00
2018-02-10T03:44:30.866Z,0.00
2018-02-10T03:45:30.837Z,0.00
2018-02-10T03:46:30.808Z,0.00
2018-02-10T03:47:30.784Z,0.00
2018-02-10T03:48:30.752Z,0.00
2018-02-10T03:49:30.726Z,0.00
2018-02-10T03:50:30.697Z,0.00
2018-02-10T03:51:30.665Z,0.00
2018-02-10T03:52:30.642Z,0.00
2018-02-10T03:53:30.614Z,0.00
2018-02-10T03:54:30.581Z,0.00
2018-02-10T03:55:30.551Z,0.00
2018-02-10T03:56:30.529Z,0.00
2018-02-10T03:57:30.497Z,0.00
2018-02-10T03:58:30.468Z,0.00
2018-02-10T03:59:30.441Z,0.00
2018-02-10T04:00:30.419Z,0.00
2018-02-10T04:01:30.394Z,0.00
2018-02-10T04:02:30.352Z,0.00
2018-02-10T04:03:30.325Z,0.00
2018-02-10T04:04:30.301Z,0.00
2018-02-10T04:05:30.271Z,0.00
2018-02-10T04:06:30.261Z,0.00
2018-02-10T04:07:30.217Z,0.00
2018-02-10T04:08:30.182Z,0.00
2018-02-10T04:09:30.153Z,0.00
2018-02-10T04:10:30.129Z,0.00
2018-02-10T04:11:30.099Z,0.00
2018-02-10T04:12:30.069Z,0.00
2018-02-10T04:13:30.039Z,0.00
2018-02-10T04:14:30.016Z,0.00
2018-02-10T04:15:29.983Z,0.00
2018-02-10T04:16:29.956Z,0.00
2018-02-10T04:17:29.927Z,0.00
2018-02-10T04:18:29.900Z,0.00
2018-02-10T04:19:29.869Z,0.00
2018-02-10T04:20:29.839Z,0.00
2018-02-10T04:21:29.813Z,0.00
2018-02-10T04:22:29.782Z,0.00
2018-02-10T04:23:29.754Z,0.00
2018-02-10T04:24:29.729Z,0.00
2018-02-10T04:25:29.700Z,0.00
2018-02-10T04:26:29.669Z,0.00
2018-02-10T04:27:29.639Z,0.00
2018-02-10T04:28:29.614Z,0.00
2018-02-10T04:29:29.587Z,0.00
2018-02-10T04:30:29.554Z,0.00
2018-02-10T04:31:29.534Z,0.00
2018-02-10T04:32:29.497Z,0.00
2018-02-10T04:33:29.474Z,0.00
2018-02-10T04:34:29.443Z,0.00
2018-02-10T04:35:29.414Z,0.00
2018-02-10T04:36:29.386Z,0.00
2018-02-10T04:37:29.357Z,0.00
2018-02-10T04:38:29.326Z,0.00
2018-02-10T04:39:29.300Z,0.00
2018-02-10T04:40:29.269Z,0.00
2018-02-10T04:41:29.243Z,0.00
2018-02-10T04:42:29.211Z,0.00
2018-02-10T04:43:29.186Z,0.00
2018-02-10T04:44:29.154Z,0.00
2018-02-10T04:45:29.128Z,0.00
2018-02-10T04:46:29.099Z,0.00
2018-02-10T04:47:29.068Z,0.00
2018-02-10T04:48:29.040Z,0.00
2018-02-10T04:49:29.011Z,0.00
2018-02-10T04:50:28.981Z,0.00
2018-02-10T04:51:28.957Z,0.00
2018-02-10T04:52:28.926Z,0.00
2018-02-10T04:53:28.899Z,0.00
2018-02-10T04:54:28.871Z,0.00
2018-02-10T04:55:28.839Z,0.00
2018-02-10T04:56:28.813Z,0.00
2018-02-10T04:57:28.783Z,0.00
2018-02-10T04:58:28.755Z,0.00
2018-02-10T04:59:28.726Z,0.00
2018-02-10T05:00:28.714Z,0.00
2018-02-10T05:01:28.667Z,0.00
2018-02-10T05:02:28.643Z,0.00
2018-02-10T05:03:28.612Z,0.00
2018-02-10T05:04:28.583Z,0.00
2018-02-10T05:05:28.555Z,0.00
2018-02-10T05:06:28.529Z,0.00
2018-02-10T05:07:28.502Z,0.00
2018-02-10T05:08:28.468Z,0.00
2018-02-10T05:09:28.441Z,0.00
2018-02-10T05:10:28.411Z,0.00
2018-02-10T05:11:28.384Z,0.00
2018-02-10T05:12:28.358Z,0.00
2018-02-10T05:13:28.329Z,0.00
2018-02-10T05:14:28.294Z,0.00
2018-02-10T05:15:28.267Z,0.00
2018-02-10T05:16:28.241Z,0.00
2018-02-10T05:17:28.212Z,0.00
2018-02-10T05:18:28.187Z,0.00
2018-02-10T05:19:28.153Z,0.00
2018-02-10T05:20:28.128Z,0.00
2018-02-10T05:21:28.099Z,0.00
2018-02-10T05:22:28.082Z,0.00
2018-02-10T05:23:28.040Z,0.00
2018-02-10T05:24:28.010Z,0.00
2018-02-10T05:25:27.985Z,0.00
2018-02-10T05:26:27.952Z,0.00
2018-02-10T05:27:27.929Z,0.00
2018-02-10T05:28:27.895Z,0.00
2018-02-10T05:29:27.870Z,0.00
2018-02-10T05:30:27.841Z,0.00
2018-02-10T05:31:27.816Z,0.00
2018-02-10T05:32:27.782Z,0.00
2018-02-10T05:33:27.757Z,0.00
2018-02-10T05:34:27.724Z,0.00
2018-02-10T05:35:27.699Z,0.00
2018-02-10T05:36:27.663Z,0.00
2018-02-10T05:37:27.642Z,0.00
2018-02-10T05:38:27.614Z,0.00
2018-02-10T05:39:27.585Z,0.00
2018-02-10T05:40:27.557Z,0.00
2018-02-10T05:41:27.528Z,0.00
2018-02-10T05:42:27.498Z,0.00
2018-02-10T05:43:27.469Z,0.00
2018-02-10T05:44:27.444Z,0.00
2018-02-10T05:45:27.409Z,0.00
2018-02-10T05:46:27.385Z,0.00
2018-02-10T05:47:27.355Z,0.00
2018-02-10T05:48:27.379Z,0.00
2018-02-10T05:49:27.296Z,0.00
2018-02-10T05:50:27.271Z,0.00
2018-02-10T05:51:27.238Z,0.00
2018-02-10T05:52:27.211Z,0.00
2018-02-10T05:53:27.188Z,0.00
2018-02-10T05:54:27.156Z,0.00
2018-02-10T05:55:27.129Z,0.00
2018-02-10T05:56:27.099Z,0.00
2018-02-10T05:57:27.068Z,0.00
2018-02-10T05:58:27.041Z,0.00
2018-02-10T05:59:27.015Z,0.00
2018-02-10T06:00:26.989Z,0.00
2018-02-10T06:01:26.960Z,0.00
2018-02-10T06:02:26.929Z,0.00
2018-02-10T06:03:26.900Z,0.00
2018-02-10T06:04:26.874Z,0.00
2018-02-10T06:05:26.848Z,0.00
2018-02-10T06:06:26.815Z,0.00
2018-02-10T06:07:26.795Z,0.00
2018-02-10T06:08:26.757Z,0.00
2018-02-10T06:09:26.729Z,0.00
2018-02-10T06:10:26.704Z,0.00
2018-02-10T06:11:26.678Z,0.00
2018-02-10T06:12:26.644Z,0.00
2018-02-10T06:13:26.621Z,0.00
2018-02-10T06:14:26.589Z,0.00
2018-02-10T06:15:26.562Z,0.00
2018-02-10T06:16:26.530Z,0.00
2018-02-10T06:17:26.501Z,0.00
2018-02-10T06:18:26.482Z,0.00
2018-02-10T06:19:26.447Z,0.00
2018-02-10T06:20:26.416Z,0.00
2018-02-10T06:21:26.391Z,0.00
2018-02-10T06:22:26.364Z,0.00
2018-02-10T06:23:26.335Z,0.00
2018-02-10T06:24:26.306Z,0.00
2018-02-10T06:25:26.292Z,0.00
2018-02-10T06:26:26.249Z,0.00
2018-02-10T06:27:26.223Z,0.00
2018-02-10T06:28:26.202Z,4.00
2018-02-10T06:29:26.162Z,0.00
2018-02-10T06:30:26.135Z,4.00
2018-02-10T06:31:26.105Z,0.00
2018-02-10T06:32:26.079Z,4.00
2018-02-10T06:33:26.053Z,4.00
2018-02-10T06:34:26.021Z,4.00
2018-02-10T06:35:25.991Z,8.00
2018-02-10T06:36:25.966Z,8.00
2018-02-10T06:37:25.939Z,8.00
2018-02-10T06:38:25.905Z,8.00
2018-02-10T06:39:25.882Z,12.00
2018-02-10T06:40:25.868Z,16.00
2018-02-10T06:41:25.824Z,12.00
2018-02-10T06:42:25.793Z,16.00
2018-02-10T06:43:25.764Z,16.00
2018-02-10T06:44:25.739Z,16.00
2018-02-10T06:45:25.712Z,24.00
2018-02-10T06:46:25.682Z,28.00
2018-02-10T06:47:25.656Z,28.00
2018-02-10T06:48:25.625Z,32.00
2018-02-10T06:49:25.598Z,36.00
2018-02-10T06:50:25.567Z,40.00
2018-02-10T06:51:25.543Z,48.00
2018-02-10T06:52:25.511Z,52.00
2018-02-10T06:53:25.485Z,56.00
2018-02-10T06:54:25.454Z,56.00
2018-02-10T06:55:25.427Z,60.00
2018-02-10T06:56:25.397Z,60.00
2018-02-10T06:57:25.376Z,68.00
2018-02-10T06:58:25.356Z,76.00
2018-02-10T06:59:25.317Z,88.00
2018-02-10T07:00:25.283Z,84.00
2018-02-10T07:01:25.259Z,80.00
2018-02-10T07:02:25.227Z,88.00
2018-02-10T07:03:25.205Z,92.00
2018-02-10T07:04:25.177Z,100.00
2018-02-10T07:05:25.141Z,112.00
2018-02-10T07:06:25.115Z,128.00
2018-02-10T07:07:25.086Z,152.00
2018-02-10T07:08:25.065Z,168.00
2018-02-10T07:09:25.043Z,180.00
2018-02-10T07:10:25.005Z,184.00
2018-02-10T07:11:24.969Z,192.00
2018-02-10T07:12:24.947Z,224.00
2018-02-10T07:13:24.915Z,240.00
2018-02-10T07:14:24.889Z,280.00
2018-02-10T07:15:24.858Z,284.00
2018-02-10T07:16:24.834Z,320.00
2018-02-10T07:17:24.805Z,316.00
2018-02-10T07:18:24.779Z,336.00
2018-02-10T07:19:24.747Z,344.00
2018-02-10T07:20:24.722Z,344.00
2018-02-10T07:21:24.693Z,344.00
2018-02-10T07:22:24.675Z,376.00
2018-02-10T07:23:24.643Z,368.00
2018-02-10T07:24:24.611Z,380.00
2018-02-10T07:25:24.583Z,356.00
2018-02-10T07:26:24.548Z,372.00
2018-02-10T07:27:24.523Z,380.00
2018-02-10T07:28:24.495Z,380.00
2018-02-10T07:29:24.466Z,400.00
2018-02-10T07:30:24.434Z,428.00
2018-02-10T07:31:24.412Z,440.00
2018-02-10T07:32:24.384Z,480.00
2018-02-10T07:33:24.355Z,528.00
2018-02-10T07:34:24.373Z,584.00
2018-02-10T07:35:24.289Z,656.00
2018-02-10T07:36:24.271Z,792.00
2018-02-10T07:37:24.242Z,844.00
2018-02-10T07:38:24.213Z,896.00
2018-02-10T07:39:24.180Z,956.00
2018-02-10T07:40:24.158Z,956.00
2018-02-10T07:41:24.139Z,964.00
2018-02-10T07:42:24.096Z,988.00
2018-02-10T07:43:24.074Z,1000.00
2018-02-10T07:44:24.040Z,952.00
2018-02-10T07:45:24.015Z,956.00
2018-02-10T07:46:23.989Z,940.00
2018-02-10T07:47:23.960Z,916.00
2018-02-10T07:48:23.929Z,904.00
2018-02-10T07:49:23.901Z,936.00
2018-02-10T07:50:23.871Z,852.00
2018-02-10T07:51:23.847Z,764.00
2018-02-10T07:52:23.848Z,752.00
2018-02-10T07:53:23.792Z,728.00
2018-02-10T07:54:23.758Z,708.00
2018-02-10T07:55:23.737Z,652.00
2018-02-10T07:56:23.702Z,564.00
2018-02-10T07:57:23.678Z,640.00
2018-02-10T07:58:23.646Z,676.00
2018-02-10T07:59:23.657Z,748.00
2018-02-10T08:00:23.671Z,772.00
2018-02-10T08:01:23.571Z,824.00
2018-02-10T08:02:23.539Z,888.00
2018-02-10T08:03:23.536Z,956.00
2018-02-10T08:04:23.486Z,940.00
2018-02-10T08:05:23.461Z,972.00
2018-02-10T08:06:23.427Z,1000.00
2018-02-10T08:07:23.398Z,1116.00
2018-02-10T08:08:23.382Z,1232.00
2018-02-10T08:09:23.342Z,1184.00
2018-02-10T08:10:23.313Z,1208.00
2018-02-10T08:11:23.282Z,1292.00
2018-02-10T08:12:23.259Z,1312.00
2018-02-10T08:13:23.231Z,1220.00
2018-02-10T08:14:23.203Z,1212.00
2018-02-10T08:15:23.179Z,1336.00
2018-02-10T08:16:23.163Z,1396.00
2018-02-10T08:17:23.116Z,1328.00
2018-02-10T08:18:23.090Z,1376.00
2018-02-10T08:19:23.056Z,1412.00
2018-02-10T08:20:23.081Z,1464.00
2018-02-10T08:21:23.004Z,1576.00
2018-02-10T08:22:22.974Z,1740.00
2018-02-10T08:23:22.945Z,1824.00
2018-02-10T08:24:22.924Z,1796.00
2018-02-10T08:25:22.895Z,1760.00
2018-02-10T08:26:22.869Z,1932.00
2018-02-10T08:27:22.834Z,2036.00
2018-02-10T08:28:22.809Z,1972.00
2018-02-10T08:29:22.782Z,2012.00
2018-02-10T08:30:22.798Z,2084.00
2018-02-10T08:31:22.726Z,2232.00
2018-02-10T08:32:22.693Z,2332.00
2018-02-10T08:33:22.665Z,2308.00
2018-02-10T08:34:22.637Z,2280.00
2018-02-10T08:35:22.610Z,2232.00
2018-02-10T08:36:22.584Z,2264.00
2018-02-10T08:37:22.552Z,2280.00
2018-02-10T08:38:22.528Z,2384.00
2018-02-10T08:39:22.500Z,2424.00
2018-02-10T08:40:22.479Z,2356.00
2018-02-10T08:41:22.440Z,2212.00
2018-02-10T08:42:22.414Z,2284.00
2018-02-10T08:43:22.388Z,2704.00
2018-02-10T08:44:22.374Z,2892.00
2018-02-10T08:45:22.328Z,2752.00
2018-02-10T08:46:22.306Z,2388.00
2018-02-10T08:47:22.271Z,2120.00
2018-02-10T08:48:22.248Z,1996.00
2018-02-10T08:49:22.217Z,1908.00
2018-02-10T08:50:22.189Z,1812.00
2018-02-10T08:51:22.161Z,1708.00
2018-02-10T08:52:22.131Z,1688.00
2018-02-10T08:53:22.104Z,1720.00
2018-02-10T08:54:22.077Z,1720.00
2018-02-10T08:55:22.065Z,1624.00
2018-02-10T08:56:22.020Z,1588.00
2018-02-10T08:57:21.996Z,1624.00
2018-02-10T08:58:21.974Z,1532.00
2018-02-10T08:59:21.939Z,1364.00
2018-02-10T09:00:21.907Z,1224.00
2018-02-10T09:01:21.886Z,1208.00
2018-02-10T09:02:21.854Z,1236.00
2018-02-10T09:03:21.823Z,1308.00
2018-02-10T09:04:21.796Z,1280.00
2018-02-10T09:05:21.770Z,1200.00
2018-02-10T09:06:21.739Z,1208.00
2018-02-10T09:07:21.721Z,1276.00
2018-02-10T09:08:21.685Z,1340.00
2018-02-10T09:09:21.656Z,1404.00
2018-02-10T09:10:21.626Z,1500.00
2018-02-10T09:11:21.599Z,1512.00
2018-02-10T09:12:21.576Z,1496.00
2018-02-10T09:13:21.543Z,1480.00
2018-02-10T09:14:21.519Z,1412.00
2018-02-10T09:15:21.487Z,1416.00
2018-02-10T09:16:21.464Z,1416.00
2018-02-10T09:17:21.430Z,1432.00
2018-02-10T09:18:21.406Z,1428.00
2018-02-10T09:19:21.378Z,1356.00
2018-02-10T09:20:21.362Z,1308.00
2018-02-10T09:21:21.319Z,1368.00
2018-02-10T09:22:21.294Z,1408.00
2018-02-10T09:23:21.263Z,1436.00
2018-02-10T09:24:21.241Z,1452.00
2018-02-10T09:25:21.212Z,1432.00
2018-02-10T09:26:21.185Z,1460.00
2018-02-10T09:27:21.154Z,1440.00
2018-02-10T09:28:21.123Z,1468.00
2018-02-10T09:29:21.095Z,1472.00
2018-02-10T09:30:21.068Z,1420.00
2018-02-10T09:31:21.045Z,1456.00
2018-02-10T09:32:21.015Z,1588.00
2018-02-10T09:33:20.982Z,1648.00
2018-02-10T09:34:20.959Z,1668.00
2018-02-10T09:35:20.925Z,1712.00
2018-02-10T09:36:20.904Z,1544.00
2018-02-10T09:37:20.874Z,1568.00
2018-02-10T09:38:20.849Z,1632.00
2018-02-10T09:39:20.814Z,1568.00
2018-02-10T09:40:20.788Z,1608.00
2018-02-10T09:41:20.761Z,1552.00
2018-02-10T09:42:20.728Z,1632.00
2018-02-10T09:43:20.724Z,1644.00
2018-02-10T09:44:20.674Z,1728.00
2018-02-10T09:45:20.646Z,1752.00
2018-02-10T09:46:20.618Z,1920.00
2018-02-10T09:47:20.594Z,2016.00
2018-02-10T09:48:20.560Z,2120.00
2018-02-10T09:49:20.534Z,1912.00
2018-02-10T09:50:20.507Z,1692.00
2018-02-10T09:51:20.477Z,1592.00
2018-02-10T09:52:20.451Z,1468.00
2018-02-10T09:53:20.423Z,1260.00
2018-02-10T09:54:20.393Z,1192.00
2018-02-10T09:55:20.367Z,1136.00
2018-02-10T09:56:20.342Z,1104.00
2018-02-10T09:57:20.306Z,1028.00
2018-02-10T09:58:20.284Z,940.00
2018-02-10T09:59:20.258Z,920.00
2018-02-10T10:00:20.226Z,984.00
2018-02-10T10:01:20.202Z,1104.00
2018-02-10T10:02:20.170Z,1184.00
2018-02-10T10:03:20.146Z,1252.00
2018-02-10T10:04:20.116Z,1296.00
2018-02-10T10:05:20.091Z,1204.00
2018-02-10T10:06:20.057Z,1192.00
2018-02-10T10:07:20.096Z,1196.00
2018-02-10T10:08:20.089Z,1164.00
2018-02-10T10:09:19.981Z,1096.00
2018-02-10T10:10:19.950Z,1168.00
2018-02-10T10:11:19.926Z,1120.00
2018-02-10T10:12:19.894Z,1188.00
2018-02-10T10:13:19.867Z,1332.00
2018-02-10T10:14:19.841Z,1392.00
2018-02-10T10:15:19.811Z,1596.00
2018-02-10T10:16:19.788Z,1596.00
2018-02-10T10:17:19.750Z,1632.00
2018-02-10T10:18:19.726Z,1724.00
2018-02-10T10:19:19.695Z,1764.00
2018-02-10T10:20:19.672Z,1620.00
2018-02-10T10:21:19.642Z,1556.00
2018-02-10T10:22:19.616Z,1416.00
2018-02-10T10:23:19.583Z,1424.00
2018-02-10T10:24:19.557Z,1360.00
2018-02-10T10:25:19.529Z,1324.00
2018-02-10T10:26:19.509Z,1292.00
2018-02-10T10:27:19.481Z,1244.00
2018-02-10T10:28:19.442Z,1268.00
2018-02-10T10:29:19.420Z,1296.00
2018-02-10T10:30:19.386Z,1460.00
2018-02-10T10:31:19.362Z,1624.00
2018-02-10T10:32:19.335Z,1884.00
2018-02-10T10:33:19.304Z,1904.00
2018-02-10T10:34:19.280Z,1720.00
2018-02-10T10:35:19.253Z,1820.00
2018-02-10T10:36:19.221Z,1572.00
2018-02-10T10:37:19.193Z,1560.00
2018-02-10T10:38:19.170Z,1524.00
2018-02-10T10:39:19.134Z,1608.00
2018-02-10T10:40:19.114Z,1536.00
2018-02-10T10:41:19.076Z,1540.00
2018-02-10T10:42:19.058Z,1540.00
2018-02-10T10:43:19.028Z,1688.00
2018-02-10T10:44:18.999Z,1712.00
2018-02-10T10:45:18.973Z,1800.00
2018-02-10T10:46:18.950Z,2196.00
2018-02-10T10:47:18.934Z,2292.00
2018-02-10T10:48:18.893Z,2340.00
2018-02-10T10:49:18.858Z,2404.00
2018-02-10T10:50:18.863Z,2236.00
2018-02-10T10:51:18.828Z,1984.00
2018-02-10T10:52:18.785Z,1988.00
2018-02-10T10:53:18.749Z,2028.00
2018-02-10T10:54:18.724Z,2080.00
2018-02-10T10:55:18.697Z,2356.00
2018-02-10T10:56:18.668Z,2704.00
2018-02-10T10:57:19.414Z,2616.00
2018-02-10T10:58:18.605Z,2484.00
2018-02-10T10:59:18.586Z,2400.00
2018-02-10T11:00:18.557Z,2376.00
2018-02-10T11:01:18.530Z,2500.00
2018-02-10T11:02:18.496Z,2216.00
2018-02-10T11:03:18.469Z,2172.00
2018-02-10T11:04:18.489Z,2116.00
2018-02-10T11:05:18.422Z,2236.00
2018-02-10T11:06:18.415Z,2412.00
2018-02-10T11:07:18.380Z,2528.00
2018-02-10T11:08:18.332Z,2652.00
2018-02-10T11:09:18.303Z,2832.00
2018-02-10T11:10:18.274Z,2436.00
2018-02-10T11:11:18.255Z,2352.00
2018-02-10T11:12:18.219Z,2268.00
2018-02-10T11:13:18.192Z,2184.00
2018-02-10T11:14:18.161Z,2132.00
2018-02-10T11:15:18.135Z,2188.00
2018-02-10T11:16:18.110Z,2396.00
2018-02-10T11:17:18.080Z,2244.00
2018-02-10T11:18:18.057Z,2216.00
2018-02-10T11:19:18.026Z,2216.00
2018-02-10T11:20:17.996Z,2204.00
2018-02-10T11:21:17.972Z,2004.00
2018-02-10T11:22:17.940Z,1804.00
2018-02-10T11:23:17.915Z,1688.00
2018-02-10T11:24:17.895Z,1720.00
2018-02-10T11:25:17.860Z,1868.00
2018-02-10T11:26:17.829Z,1812.00
2018-02-10T11:27:17.804Z,1772.00
2018-02-10T11:28:17.779Z,1708.00
2018-02-10T11:29:17.749Z,1784.00
2018-02-10T11:30:17.719Z,1780.00
2018-02-10T11:31:17.704Z,1656.00
2018-02-10T11:32:17.671Z,1860.00
2018-02-10T11:33:17.636Z,1816.00
2018-02-10T11:34:17.611Z,1924.00
2018-02-10T11:35:17.584Z,2036.00
2018-02-10T11:36:17.552Z,1864.00
2018-02-10T11:37:17.538Z,1668.00
2018-02-10T11:38:17.497Z,1448.00
2018-02-10T11:39:17.471Z,1496.00
2018-02-10T11:40:17.440Z,1508.00
2018-02-10T11:41:17.418Z,1476.00
2018-02-10T11:42:17.382Z,1384.00
2018-02-10T11:43:17.356Z,1392.00
2018-02-10T11:44:17.328Z,1256.00
2018-02-10T11:45:17.300Z,1340.00
2018-02-10T11:46:17.271Z,1344.00
2018-02-10T11:47:17.246Z,1244.00
2018-02-10T11:48:17.230Z,1288.00
2018-02-10T11:49:17.266Z,1420.00
2018-02-10T11:50:17.158Z,1420.00
2018-02-10T11:51:17.133Z,1468.00
2018-02-10T11:52:17.107Z,1612.00
2018-02-10T11:53:17.075Z,1736.00
2018-02-10T11:54:17.052Z,1744.00
2018-02-10T11:55:17.019Z,1596.00
2018-02-10T11:56:16.995Z,1456.00
2018-02-10T11:57:16.962Z,1356.00
2018-02-10T11:58:16.940Z,1304.00
2018-02-10T11:59:16.916Z,1536.00
2018-02-10T12:00:16.883Z,1564.00
2018-02-10T12:01:16.854Z,1596.00
2018-02-10T12:02:16.827Z,1572.00
2018-02-10T12:03:16.799Z,1560.00
2018-02-10T12:04:16.770Z,1620.00
2018-02-10T12:05:16.741Z,1556.00
2018-02-10T12:06:16.714Z,1700.00
2018-02-10T12:07:16.689Z,1984.00
2018-02-10T12:08:16.658Z,2308.00
2018-02-10T12:09:16.629Z,2824.00
2018-02-10T12:10:16.600Z,3068.00
2018-02-10T12:11:16.568Z,3128.00
2018-02-10T12:12:16.549Z,3368.00
2018-02-10T12:13:16.526Z,2952.00
2018-02-10T12:14:16.488Z,2884.00
2018-02-10T12:15:16.464Z,3304.00
2018-02-10T12:16:16.432Z,3884.00
2018-02-10T12:17:16.406Z,4116.00
2018-02-10T12:18:16.378Z,3524.00
2018-02-10T12:19:16.351Z,3604.00
2018-02-10T12:20:16.321Z,3640.00
2018-02-10T12:21:16.289Z,4104.00
2018-02-10T12:22:16.267Z,4652.00
2018-02-10T12:23:16.236Z,5468.00
2018-02-10T12:24:16.211Z,5540.00
2018-02-10T12:25:16.206Z,6248.00
2018-02-10T12:26:16.152Z,7596.00
2018-02-10T12:27:16.128Z,9356.00
2018-02-10T12:28:16.101Z,9324.00
2018-02-10T12:29:16.070Z,9604.00
2018-02-10T12:30:16.042Z,9100.00
2018-02-10T12:31:16.027Z,9144.00
2018-02-10T12:32:15.992Z,10060.00
2018-02-10T12:33:15.968Z,10196.00
2018-02-10T12:34:16.055Z,10580.00
2018-02-10T12:35:15.904Z,10344.00
2018-02-10T12:36:15.881Z,9756.00
2018-02-10T12:37:15.852Z,8660.00
2018-02-10T12:38:15.830Z,7764.00
2018-02-10T12:39:15.801Z,6072.00
2018-02-10T12:40:15.771Z,5240.00
2018-02-10T12:41:15.770Z,4492.00
2018-02-10T12:42:15.746Z,3604.00
2018-02-10T12:43:15.733Z,3228.00
2018-02-10T12:44:15.707Z,2896.00
2018-02-10T12:45:15.676Z,2716.00